Encinitas, California
Current Conditions -  °F | °C
As of 9:53 AM on Friday 21 Nov 2014 (Local Time) from KCRQ Reporting Station
Few Clouds Few Clouds  
Wind Chill: 64°   Ceiling: Unl
Heat Index: 64°   Visibility: 10mi
Dew Point: 53°   Wind: 3mph
Humidity: 67%   Direction: NA
Pressure: 29.99"   Gusts: NA
Location:  33.05°N, 117.29°W
Report Text: KCRQ 211753Z AUTO VRB03KT 10SM FEW022 18/12 A2999 RMK AO2 SLP152 60008 T01780117 10183 20139 51010 TSNO
Loading
Personal Weather Stations






























Interactive Weather Map New forecast layout! Learn more

10-Day Weather Forecast

Advertisements
Track Severe Weather on mobile